sensor_id;sensor_type;location;lat;lon;timestamp;P1;durP1;ratioP1;P2;durP2;ratioP2
14858;SDS011;7521;51.700;6.874;2023-06-14T00:00:59;7.73;;;3.53;;
14858;SDS011;7521;51.700;6.874;2023-06-14T00:04:05;7.30;;;3.50;;
14858;SDS011;7521;51.700;6.874;2023-06-14T00:07:10;9.00;;;3.63;;
14858;SDS011;7521;51.700;6.874;2023-06-14T00:10:18;6.50;;;3.10;;
14858;SDS011;7521;51.700;6.874;2023-06-14T00:13:23;4.67;;;3.20;;
14858;SDS011;7521;51.700;6.874;2023-06-14T00:16:29;4.68;;;3.10;;
14858;SDS011;7521;51.700;6.874;2023-06-14T00:19:34;6.20;;;3.73;;
14858;SDS011;7521;51.700;6.874;2023-06-14T00:22:41;7.93;;;3.10;;
14858;SDS011;7521;51.700;6.874;2023-06-14T00:25:46;4.20;;;3.15;;
14858;SDS011;7521;51.700;6.874;2023-06-14T00:28:52;6.70;;;3.43;;
14858;SDS011;7521;51.700;6.874;2023-06-14T00:31:57;6.60;;;3.27;;
14858;SDS011;7521;51.700;6.874;2023-06-14T00:35:02;4.47;;;3.05;;
14858;SDS011;7521;51.700;6.874;2023-06-14T00:38:07;5.77;;;3.27;;
14858;SDS011;7521;51.700;6.874;2023-06-14T00:41:13;5.03;;;2.92;;
14858;SDS011;7521;51.700;6.874;2023-06-14T00:44:18;5.63;;;3.20;;
14858;SDS011;7521;51.700;6.874;2023-06-14T00:47:23;3.08;;;2.78;;
14858;SDS011;7521;51.700;6.874;2023-06-14T00:50:28;4.77;;;3.10;;
14858;SDS011;7521;51.700;6.874;2023-06-14T00:53:34;4.93;;;3.03;;
14858;SDS011;7521;51.700;6.874;2023-06-14T00:56:40;5.23;;;2.80;;
14858;SDS011;7521;51.700;6.874;2023-06-14T00:59:47;4.37;;;2.93;;
14858;SDS011;7521;51.700;6.874;2023-06-14T01:02:52;3.07;;;2.77;;
14858;SDS011;7521;51.700;6.874;2023-06-14T01:06:01;5.07;;;3.00;;
14858;SDS011;7521;51.700;6.874;2023-06-14T01:09:33;4.53;;;3.00;;
14858;SDS011;7521;51.700;6.874;2023-06-14T01:15:52;4.00;;;2.87;;
14858;SDS011;7521;51.700;6.874;2023-06-14T01:18:57;5.00;;;2.77;;
14858;SDS011;7521;51.700;6.874;2023-06-14T01:22:03;5.17;;;3.20;;
14858;SDS011;7521;51.700;6.874;2023-06-14T01:25:08;4.77;;;2.60;;
14858;SDS011;7521;51.700;6.874;2023-06-14T01:28:14;6.85;;;2.85;;
14858;SDS011;7521;51.700;6.874;2023-06-14T01:31:21;6.37;;;3.30;;
14858;SDS011;7521;51.700;6.874;2023-06-14T01:34:26;5.97;;;2.73;;
14858;SDS011;7521;51.700;6.874;2023-06-14T01:37:32;4.60;;;2.90;;
14858;SDS011;7521;51.700;6.874;2023-06-14T01:40:37;6.37;;;3.13;;
14858;SDS011;7521;51.700;6.874;2023-06-14T01:43:43;6.40;;;3.10;;
14858;SDS011;7521;51.700;6.874;2023-06-14T01:46:48;7.10;;;2.93;;
14858;SDS011;7521;51.700;6.874;2023-06-14T01:49:54;10.97;;;3.60;;
14858;SDS011;7521;51.700;6.874;2023-06-14T01:52:59;11.90;;;3.00;;
14858;SDS011;7521;51.700;6.874;2023-06-14T01:56:04;4.93;;;2.53;;
14858;SDS011;7521;51.700;6.874;2023-06-14T01:59:10;5.30;;;2.90;;
14858;SDS011;7521;51.700;6.874;2023-06-14T02:02:15;4.85;;;2.65;;
14858;SDS011;7521;51.700;6.874;2023-06-14T02:05:20;3.65;;;3.03;;
14858;SDS011;7521;51.700;6.874;2023-06-14T02:08:25;7.00;;;2.97;;
14858;SDS011;7521;51.700;6.874;2023-06-14T02:11:31;8.85;;;3.10;;
14858;SDS011;7521;51.700;6.874;2023-06-14T02:14:36;6.70;;;2.75;;
14858;SDS011;7521;51.700;6.874;2023-06-14T02:17:41;3.72;;;2.85;;
14858;SDS011;7521;51.700;6.874;2023-06-14T02:20:46;6.57;;;3.07;;
14858;SDS011;7521;51.700;6.874;2023-06-14T02:23:51;3.50;;;2.83;;
14858;SDS011;7521;51.700;6.874;2023-06-14T02:26:57;4.15;;;2.75;;
14858;SDS011;7521;51.700;6.874;2023-06-14T02:30:02;7.40;;;3.03;;
14858;SDS011;7521;51.700;6.874;2023-06-14T02:33:07;5.73;;;2.53;;
14858;SDS011;7521;51.700;6.874;2023-06-14T02:36:12;5.07;;;2.50;;
14858;SDS011;7521;51.700;6.874;2023-06-14T02:39:17;4.22;;;3.00;;
14858;SDS011;7521;51.700;6.874;2023-06-14T02:42:25;5.37;;;2.63;;
14858;SDS011;7521;51.700;6.874;2023-06-14T02:45:30;6.28;;;2.53;;
14858;SDS011;7521;51.700;6.874;2023-06-14T02:48:35;8.90;;;2.55;;
14858;SDS011;7521;51.700;6.874;2023-06-14T02:51:41;4.03;;;2.90;;
14858;SDS011;7521;51.700;6.874;2023-06-14T02:54:46;4.15;;;2.72;;
14858;SDS011;7521;51.700;6.874;2023-06-14T02:57:52;3.97;;;2.93;;
14858;SDS011;7521;51.700;6.874;2023-06-14T03:00:58;5.83;;;2.20;;
14858;SDS011;7521;51.700;6.874;2023-06-14T03:04:08;4.50;;;2.93;;
14858;SDS011;7521;51.700;6.874;2023-06-14T03:07:13;4.07;;;2.57;;
14858;SDS011;7521;51.700;6.874;2023-06-14T03:10:24;5.43;;;2.60;;
14858;SDS011;7521;51.700;6.874;2023-06-14T03:13:30;9.37;;;2.63;;
14858;SDS011;7521;51.700;6.874;2023-06-14T03:16:37;4.07;;;2.57;;
14858;SDS011;7521;51.700;6.874;2023-06-14T03:19:42;5.67;;;2.67;;
14858;SDS011;7521;51.700;6.874;2023-06-14T03:22:47;6.90;;;2.83;;
14858;SDS011;7521;51.700;6.874;2023-06-14T03:25:53;6.17;;;3.03;;
14858;SDS011;7521;51.700;6.874;2023-06-14T03:28:58;8.23;;;2.60;;
14858;SDS011;7521;51.700;6.874;2023-06-14T03:32:03;4.87;;;2.63;;
14858;SDS011;7521;51.700;6.874;2023-06-14T03:35:08;4.67;;;2.60;;
14858;SDS011;7521;51.700;6.874;2023-06-14T03:38:21;4.30;;;2.70;;
14858;SDS011;7521;51.700;6.874;2023-06-14T03:41:27;3.80;;;2.50;;
14858;SDS011;7521;51.700;6.874;2023-06-14T03:44:32;3.17;;;2.50;;
14858;SDS011;7521;51.700;6.874;2023-06-14T03:47:37;6.10;;;2.35;;
14858;SDS011;7521;51.700;6.874;2023-06-14T03:50:42;5.75;;;2.60;;
14858;SDS011;7521;51.700;6.874;2023-06-14T03:53:47;5.23;;;2.73;;
14858;SDS011;7521;51.700;6.874;2023-06-14T03:56:53;4.10;;;2.78;;
14858;SDS011;7521;51.700;6.874;2023-06-14T03:59:58;3.42;;;2.53;;
14858;SDS011;7521;51.700;6.874;2023-06-14T04:03:03;3.97;;;2.77;;
14858;SDS011;7521;51.700;6.874;2023-06-14T04:06:10;4.63;;;2.53;;
14858;SDS011;7521;51.700;6.874;2023-06-14T04:09:15;7.47;;;2.70;;
14858;SDS011;7521;51.700;6.874;2023-06-14T04:12:20;6.33;;;2.70;;
14858;SDS011;7521;51.700;6.874;2023-06-14T04:15:25;4.55;;;2.13;;
14858;SDS011;7521;51.700;6.874;2023-06-14T04:18:33;4.03;;;2.67;;
14858;SDS011;7521;51.700;6.874;2023-06-14T04:21:38;3.83;;;2.58;;
14858;SDS011;7521;51.700;6.874;2023-06-14T04:24:43;6.57;;;2.50;;
14858;SDS011;7521;51.700;6.874;2023-06-14T04:27:49;5.43;;;2.30;;
14858;SDS011;7521;51.700;6.874;2023-06-14T04:30:55;3.47;;;2.40;;
14858;SDS011;7521;51.700;6.874;2023-06-14T04:34:00;6.70;;;2.93;;
14858;SDS011;7521;51.700;6.874;2023-06-14T04:37:05;3.20;;;2.38;;
14858;SDS011;7521;51.700;6.874;2023-06-14T04:40:12;4.37;;;2.50;;
14858;SDS011;7521;51.700;6.874;2023-06-14T04:43:17;8.10;;;2.50;;
14858;SDS011;7521;51.700;6.874;2023-06-14T04:46:30;5.10;;;2.20;;
14858;SDS011;7521;51.700;6.874;2023-06-14T04:49:36;3.73;;;2.33;;
14858;SDS011;7521;51.700;6.874;2023-06-14T04:52:42;5.43;;;2.75;;
14858;SDS011;7521;51.700;6.874;2023-06-14T04:55:47;6.73;;;2.70;;
14858;SDS011;7521;51.700;6.874;2023-06-14T04:58:53;3.23;;;2.40;;
14858;SDS011;7521;51.700;6.874;2023-06-14T05:01:58;6.73;;;2.67;;
14858;SDS011;7521;51.700;6.874;2023-06-14T05:05:05;4.10;;;2.37;;
14858;SDS011;7521;51.700;6.874;2023-06-14T05:08:12;3.37;;;2.20;;
14858;SDS011;7521;51.700;6.874;2023-06-14T05:11:17;3.30;;;2.50;;
14858;SDS011;7521;51.700;6.874;2023-06-14T05:14:23;4.17;;;2.17;;
14858;SDS011;7521;51.700;6.874;2023-06-14T05:17:28;3.67;;;2.10;;
14858;SDS011;7521;51.700;6.874;2023-06-14T05:20:33;7.50;;;2.57;;
14858;SDS011;7521;51.700;6.874;2023-06-14T05:23:39;2.50;;;2.00;;
14858;SDS011;7521;51.700;6.874;2023-06-14T05:26:45;2.73;;;2.00;;
14858;SDS011;7521;51.700;6.874;2023-06-14T05:29:50;3.53;;;2.47;;
14858;SDS011;7521;51.700;6.874;2023-06-14T05:32:55;3.87;;;1.90;;
14858;SDS011;7521;51.700;6.874;2023-06-14T05:36:00;4.28;;;2.30;;
14858;SDS011;7521;51.700;6.874;2023-06-14T05:39:06;4.97;;;2.13;;
14858;SDS011;7521;51.700;6.874;2023-06-14T05:42:11;13.90;;;2.37;;
14858;SDS011;7521;51.700;6.874;2023-06-14T05:45:17;4.37;;;2.03;;
14858;SDS011;7521;51.700;6.874;2023-06-14T05:48:22;3.20;;;2.35;;
14858;SDS011;7521;51.700;6.874;2023-06-14T05:51:27;4.32;;;2.13;;
14858;SDS011;7521;51.700;6.874;2023-06-14T05:54:33;3.93;;;2.10;;
14858;SDS011;7521;51.700;6.874;2023-06-14T05:57:39;6.17;;;2.37;;
14858;SDS011;7521;51.700;6.874;2023-06-14T06:00:44;4.45;;;2.67;;
14858;SDS011;7521;51.700;6.874;2023-06-14T06:03:49;4.37;;;2.60;;
14858;SDS011;7521;51.700;6.874;2023-06-14T06:06:54;6.17;;;2.43;;
14858;SDS011;7521;51.700;6.874;2023-06-14T06:09:59;7.43;;;2.20;;
14858;SDS011;7521;51.700;6.874;2023-06-14T06:13:05;4.77;;;2.13;;
14858;SDS011;7521;51.700;6.874;2023-06-14T06:16:10;4.23;;;2.10;;
14858;SDS011;7521;51.700;6.874;2023-06-14T06:19:15;4.97;;;2.30;;
14858;SDS011;7521;51.700;6.874;2023-06-14T06:22:20;6.63;;;2.40;;
14858;SDS011;7521;51.700;6.874;2023-06-14T06:25:26;5.10;;;2.30;;
14858;SDS011;7521;51.700;6.874;2023-06-14T06:28:36;3.23;;;1.90;;
14858;SDS011;7521;51.700;6.874;2023-06-14T06:31:41;4.65;;;2.17;;
14858;SDS011;7521;51.700;6.874;2023-06-14T06:34:47;4.65;;;2.40;;
14858;SDS011;7521;51.700;6.874;2023-06-14T06:37:52;4.50;;;1.90;;
14858;SDS011;7521;51.700;6.874;2023-06-14T06:40:57;5.03;;;1.80;;
14858;SDS011;7521;51.700;6.874;2023-06-14T06:44:03;6.30;;;1.90;;
14858;SDS011;7521;51.700;6.874;2023-06-14T06:47:08;2.55;;;1.75;;
14858;SDS011;7521;51.700;6.874;2023-06-14T06:50:14;2.80;;;1.90;;
14858;SDS011;7521;51.700;6.874;2023-06-14T06:53:20;7.10;;;1.83;;
14858;SDS011;7521;51.700;6.874;2023-06-14T06:56:25;7.93;;;2.10;;
14858;SDS011;7521;51.700;6.874;2023-06-14T06:59:30;4.43;;;1.87;;
14858;SDS011;7521;51.700;6.874;2023-06-14T07:02:36;1.70;;;1.60;;
14858;SDS011;7521;51.700;6.874;2023-06-14T07:05:41;3.67;;;1.83;;
14858;SDS011;7521;51.700;6.874;2023-06-14T07:08:46;2.17;;;1.60;;
14858;SDS011;7521;51.700;6.874;2023-06-14T07:11:54;3.17;;;1.70;;
14858;SDS011;7521;51.700;6.874;2023-06-14T07:14:59;4.10;;;1.90;;
14858;SDS011;7521;51.700;6.874;2023-06-14T07:18:05;3.97;;;1.57;;
14858;SDS011;7521;51.700;6.874;2023-06-14T07:21:11;3.87;;;1.83;;
14858;SDS011;7521;51.700;6.874;2023-06-14T07:24:17;2.37;;;1.50;;
14858;SDS011;7521;51.700;6.874;2023-06-14T07:27:22;5.70;;;1.97;;
14858;SDS011;7521;51.700;6.874;2023-06-14T07:30:27;5.33;;;1.60;;
14858;SDS011;7521;51.700;6.874;2023-06-14T07:33:34;3.40;;;1.53;;
14858;SDS011;7521;51.700;6.874;2023-06-14T07:36:40;6.17;;;1.90;;
14858;SDS011;7521;51.700;6.874;2023-06-14T07:39:45;4.53;;;1.80;;
14858;SDS011;7521;51.700;6.874;2023-06-14T07:42:50;2.38;;;1.60;;
14858;SDS011;7521;51.700;6.874;2023-06-14T07:45:55;3.00;;;1.77;;
14858;SDS011;7521;51.700;6.874;2023-06-14T07:49:01;5.07;;;1.73;;
14858;SDS011;7521;51.700;6.874;2023-06-14T07:52:07;3.50;;;1.80;;
14858;SDS011;7521;51.700;6.874;2023-06-14T07:55:12;6.33;;;2.30;;
14858;SDS011;7521;51.700;6.874;2023-06-14T07:58:18;12.63;;;2.30;;
14858;SDS011;7521;51.700;6.874;2023-06-14T08:01:23;2.57;;;2.10;;
14858;SDS011;7521;51.700;6.874;2023-06-14T08:04:31;5.73;;;1.73;;
14858;SDS011;7521;51.700;6.874;2023-06-14T08:07:37;2.97;;;2.03;;
14858;SDS011;7521;51.700;6.874;2023-06-14T08:10:42;4.80;;;1.67;;
14858;SDS011;7521;51.700;6.874;2023-06-14T08:13:47;2.20;;;1.60;;
14858;SDS011;7521;51.700;6.874;2023-06-14T08:16:52;4.65;;;1.60;;
14858;SDS011;7521;51.700;6.874;2023-06-14T08:19:58;2.53;;;1.80;;
14858;SDS011;7521;51.700;6.874;2023-06-14T08:23:04;6.10;;;1.40;;
14858;SDS011;7521;51.700;6.874;2023-06-14T08:26:09;3.87;;;1.30;;
14858;SDS011;7521;51.700;6.874;2023-06-14T08:29:15;3.67;;;1.50;;
14858;SDS011;7521;51.700;6.874;2023-06-14T08:32:20;2.37;;;1.30;;
14858;SDS011;7521;51.700;6.874;2023-06-14T08:35:25;2.30;;;1.67;;
14858;SDS011;7521;51.700;6.874;2023-06-14T08:38:30;4.60;;;1.60;;
14858;SDS011;7521;51.700;6.874;2023-06-14T08:41:36;3.30;;;1.50;;
14858;SDS011;7521;51.700;6.874;2023-06-14T08:44:41;1.97;;;1.63;;
14858;SDS011;7521;51.700;6.874;2023-06-14T08:47:46;1.93;;;1.40;;
14858;SDS011;7521;51.700;6.874;2023-06-14T08:50:56;2.93;;;1.47;;
14858;SDS011;7521;51.700;6.874;2023-06-14T08:54:07;2.77;;;1.60;;
14858;SDS011;7521;51.700;6.874;2023-06-14T08:57:12;3.87;;;1.60;;
14858;SDS011;7521;51.700;6.874;2023-06-14T09:00:20;1.67;;;1.47;;
14858;SDS011;7521;51.700;6.874;2023-06-14T09:03:26;4.53;;;1.37;;
14858;SDS011;7521;51.700;6.874;2023-06-14T09:06:34;1.77;;;1.50;;
14858;SDS011;7521;51.700;6.874;2023-06-14T09:09:41;4.13;;;2.20;;
14858;SDS011;7521;51.700;6.874;2023-06-14T09:12:47;6.43;;;2.43;;
14858;SDS011;7521;51.700;6.874;2023-06-14T09:15:52;2.80;;;1.23;;
14858;SDS011;7521;51.700;6.874;2023-06-14T09:18:57;5.32;;;2.40;;
14858;SDS011;7521;51.700;6.874;2023-06-14T09:22:03;9.37;;;2.30;;
14858;SDS011;7521;51.700;6.874;2023-06-14T09:25:08;4.23;;;1.50;;
14858;SDS011;7521;51.700;6.874;2023-06-14T09:28:13;9.90;;;2.13;;
14858;SDS011;7521;51.700;6.874;2023-06-14T09:31:20;4.85;;;1.63;;
14858;SDS011;7521;51.700;6.874;2023-06-14T09:34:25;2.20;;;1.10;;
14858;SDS011;7521;51.700;6.874;2023-06-14T09:37:31;3.87;;;1.33;;
14858;SDS011;7521;51.700;6.874;2023-06-14T09:40:37;2.60;;;1.13;;
14858;SDS011;7521;51.700;6.874;2023-06-14T09:43:42;1.47;;;1.00;;
14858;SDS011;7521;51.700;6.874;2023-06-14T09:46:48;1.67;;;1.10;;
14858;SDS011;7521;51.700;6.874;2023-06-14T09:49:53;1.23;;;1.07;;
14858;SDS011;7521;51.700;6.874;2023-06-14T09:53:05;1.77;;;1.20;;
14858;SDS011;7521;51.700;6.874;2023-06-14T09:56:10;3.07;;;1.20;;
14858;SDS011;7521;51.700;6.874;2023-06-14T09:59:19;3.00;;;0.80;;
14858;SDS011;7521;51.700;6.874;2023-06-14T10:02:26;2.13;;;1.10;;
14858;SDS011;7521;51.700;6.874;2023-06-14T10:05:31;2.57;;;0.90;;
14858;SDS011;7521;51.700;6.874;2023-06-14T10:08:37;3.23;;;0.90;;
14858;SDS011;7521;51.700;6.874;2023-06-14T10:11:42;1.70;;;0.80;;
14858;SDS011;7521;51.700;6.874;2023-06-14T10:14:49;1.87;;;0.97;;
14858;SDS011;7521;51.700;6.874;2023-06-14T10:17:56;1.87;;;0.90;;
14858;SDS011;7521;51.700;6.874;2023-06-14T10:21:16;1.77;;;0.80;;
14858;SDS011;7521;51.700;6.874;2023-06-14T10:24:26;1.07;;;0.90;;
14858;SDS011;7521;51.700;6.874;2023-06-14T10:27:33;1.57;;;0.70;;
14858;SDS011;7521;51.700;6.874;2023-06-14T10:30:38;4.30;;;0.90;;
14858;SDS011;7521;51.700;6.874;2023-06-14T10:33:50;2.03;;;0.70;;
14858;SDS011;7521;51.700;6.874;2023-06-14T10:37:01;1.20;;;0.77;;
14858;SDS011;7521;51.700;6.874;2023-06-14T10:40:07;2.63;;;0.90;;
14858;SDS011;7521;51.700;6.874;2023-06-14T10:43:23;6.47;;;1.10;;
14858;SDS011;7521;51.700;6.874;2023-06-14T10:46:28;1.90;;;1.00;;
14858;SDS011;7521;51.700;6.874;2023-06-14T10:49:43;2.47;;;1.07;;
14858;SDS011;7521;51.700;6.874;2023-06-14T10:52:49;1.20;;;1.00;;
14858;SDS011;7521;51.700;6.874;2023-06-14T10:55:56;3.73;;;1.00;;
14858;SDS011;7521;51.700;6.874;2023-06-14T10:59:01;3.40;;;1.20;;
14858;SDS011;7521;51.700;6.874;2023-06-14T11:02:15;1.33;;;0.77;;
14858;SDS011;7521;51.700;6.874;2023-06-14T11:05:27;7.00;;;0.87;;
14858;SDS011;7521;51.700;6.874;2023-06-14T11:11:57;5.63;;;1.13;;
14858;SDS011;7521;51.700;6.874;2023-06-14T11:15:02;1.03;;;0.90;;
14858;SDS011;7521;51.700;6.874;2023-06-14T11:18:08;2.40;;;1.03;;
14858;SDS011;7521;51.700;6.874;2023-06-14T11:21:17;3.93;;;1.13;;
14858;SDS011;7521;51.700;6.874;2023-06-14T11:24:23;2.53;;;0.70;;
14858;SDS011;7521;51.700;6.874;2023-06-14T11:27:28;2.40;;;0.82;;
14858;SDS011;7521;51.700;6.874;2023-06-14T11:30:33;4.10;;;1.00;;
14858;SDS011;7521;51.700;6.874;2023-06-14T11:33:39;2.40;;;0.90;;
14858;SDS011;7521;51.700;6.874;2023-06-14T11:36:44;2.60;;;0.90;;
14858;SDS011;7521;51.700;6.874;2023-06-14T11:39:51;1.73;;;0.90;;
14858;SDS011;7521;51.700;6.874;2023-06-14T11:43:02;1.93;;;0.90;;
14858;SDS011;7521;51.700;6.874;2023-06-14T11:46:13;1.60;;;0.80;;
14858;SDS011;7521;51.700;6.874;2023-06-14T11:49:20;1.23;;;1.00;;
14858;SDS011;7521;51.700;6.874;2023-06-14T11:52:25;5.03;;;1.53;;
14858;SDS011;7521;51.700;6.874;2023-06-14T11:55:30;2.23;;;1.03;;
14858;SDS011;7521;51.700;6.874;2023-06-14T11:58:36;1.90;;;0.90;;
14858;SDS011;7521;51.700;6.874;2023-06-14T12:01:42;5.03;;;0.90;;
14858;SDS011;7521;51.700;6.874;2023-06-14T12:04:48;2.40;;;0.90;;
14858;SDS011;7521;51.700;6.874;2023-06-14T12:07:59;4.60;;;1.63;;
14858;SDS011;7521;51.700;6.874;2023-06-14T12:11:12;1.53;;;1.17;;
14858;SDS011;7521;51.700;6.874;2023-06-14T12:14:18;2.17;;;1.43;;
14858;SDS011;7521;51.700;6.874;2023-06-14T12:17:23;2.00;;;0.97;;
14858;SDS011;7521;51.700;6.874;2023-06-14T12:20:29;2.47;;;1.00;;
14858;SDS011;7521;51.700;6.874;2023-06-14T12:23:44;1.73;;;1.10;;
14858;SDS011;7521;51.700;6.874;2023-06-14T12:26:51;1.73;;;1.10;;
14858;SDS011;7521;51.700;6.874;2023-06-14T12:30:00;2.50;;;1.10;;
14858;SDS011;7521;51.700;6.874;2023-06-14T12:33:06;1.33;;;0.90;;
14858;SDS011;7521;51.700;6.874;2023-06-14T12:36:12;1.20;;;1.10;;
14858;SDS011;7521;51.700;6.874;2023-06-14T12:39:17;5.17;;;1.20;;
14858;SDS011;7521;51.700;6.874;2023-06-14T12:42:23;2.20;;;0.97;;
14858;SDS011;7521;51.700;6.874;2023-06-14T12:45:28;4.50;;;1.20;;
14858;SDS011;7521;51.700;6.874;2023-06-14T12:48:33;1.03;;;0.93;;
14858;SDS011;7521;51.700;6.874;2023-06-14T12:51:39;1.93;;;1.23;;
14858;SDS011;7521;51.700;6.874;2023-06-14T12:54:45;2.20;;;1.13;;
14858;SDS011;7521;51.700;6.874;2023-06-14T12:57:50;1.80;;;1.10;;
14858;SDS011;7521;51.700;6.874;2023-06-14T13:00:56;4.13;;;1.10;;
14858;SDS011;7521;51.700;6.874;2023-06-14T13:04:01;1.23;;;1.10;;
14858;SDS011;7521;51.700;6.874;2023-06-14T13:07:06;1.93;;;1.23;;
14858;SDS011;7521;51.700;6.874;2023-06-14T13:10:12;3.30;;;1.13;;
14858;SDS011;7521;51.700;6.874;2023-06-14T13:13:17;1.87;;;1.07;;
14858;SDS011;7521;51.700;6.874;2023-06-14T13:16:22;1.80;;;1.27;;
14858;SDS011;7521;51.700;6.874;2023-06-14T13:19:27;2.87;;;1.47;;
14858;SDS011;7521;51.700;6.874;2023-06-14T13:22:33;3.70;;;1.40;;
14858;SDS011;7521;51.700;6.874;2023-06-14T13:25:38;4.23;;;1.57;;
14858;SDS011;7521;51.700;6.874;2023-06-14T13:28:44;4.20;;;1.33;;
14858;SDS011;7521;51.700;6.874;2023-06-14T13:31:49;3.27;;;1.40;;
14858;SDS011;7521;51.700;6.874;2023-06-14T13:34:54;3.77;;;1.57;;
14858;SDS011;7521;51.700;6.874;2023-06-14T13:37:59;5.03;;;1.27;;
14858;SDS011;7521;51.700;6.874;2023-06-14T13:41:05;2.13;;;1.27;;
14858;SDS011;7521;51.700;6.874;2023-06-14T13:44:10;1.30;;;1.20;;
14858;SDS011;7521;51.700;6.874;2023-06-14T13:47:19;1.80;;;1.60;;
14858;SDS011;7521;51.700;6.874;2023-06-14T13:50:24;3.53;;;1.30;;
14858;SDS011;7521;51.700;6.874;2023-06-14T13:53:29;4.40;;;1.50;;
14858;SDS011;7521;51.700;6.874;2023-06-14T13:56:34;3.57;;;1.70;;
14858;SDS011;7521;51.700;6.874;2023-06-14T13:59:40;2.70;;;1.67;;
14858;SDS011;7521;51.700;6.874;2023-06-14T14:02:45;1.90;;;1.40;;
14858;SDS011;7521;51.700;6.874;2023-06-14T14:05:51;1.93;;;1.40;;
14858;SDS011;7521;51.700;6.874;2023-06-14T14:08:56;2.40;;;1.93;;
14858;SDS011;7521;51.700;6.874;2023-06-14T14:12:01;1.50;;;1.40;;
14858;SDS011;7521;51.700;6.874;2023-06-14T14:15:07;3.10;;;1.47;;
14858;SDS011;7521;51.700;6.874;2023-06-14T14:18:17;1.40;;;1.30;;
14858;SDS011;7521;51.700;6.874;2023-06-14T14:21:23;3.07;;;1.70;;
14858;SDS011;7521;51.700;6.874;2023-06-14T14:24:28;5.17;;;1.80;;
14858;SDS011;7521;51.700;6.874;2023-06-14T14:27:33;2.63;;;1.53;;
14858;SDS011;7521;51.700;6.874;2023-06-14T14:30:38;4.23;;;1.90;;
14858;SDS011;7521;51.700;6.874;2023-06-14T14:33:44;1.83;;;1.73;;
14858;SDS011;7521;51.700;6.874;2023-06-14T14:36:50;1.95;;;1.35;;
14858;SDS011;7521;51.700;6.874;2023-06-14T14:39:55;2.50;;;1.67;;
14858;SDS011;7521;51.700;6.874;2023-06-14T14:43:00;4.53;;;1.87;;
14858;SDS011;7521;51.700;6.874;2023-06-14T14:46:05;3.17;;;1.43;;
14858;SDS011;7521;51.700;6.874;2023-06-14T14:49:11;2.33;;;1.70;;
14858;SDS011;7521;51.700;6.874;2023-06-14T14:52:16;3.50;;;1.40;;
14858;SDS011;7521;51.700;6.874;2023-06-14T14:55:21;3.33;;;1.77;;
14858;SDS011;7521;51.700;6.874;2023-06-14T14:58:26;1.87;;;1.40;;
14858;SDS011;7521;51.700;6.874;2023-06-14T15:01:31;2.90;;;1.60;;
14858;SDS011;7521;51.700;6.874;2023-06-14T15:04:37;2.80;;;1.80;;
14858;SDS011;7521;51.700;6.874;2023-06-14T15:07:42;5.77;;;1.70;;
14858;SDS011;7521;51.700;6.874;2023-06-14T15:10:47;3.27;;;1.63;;
14858;SDS011;7521;51.700;6.874;2023-06-14T15:13:53;3.10;;;1.60;;
14858;SDS011;7521;51.700;6.874;2023-06-14T15:16:58;2.67;;;1.73;;
14858;SDS011;7521;51.700;6.874;2023-06-14T15:20:06;2.60;;;1.73;;
14858;SDS011;7521;51.700;6.874;2023-06-14T15:23:12;1.73;;;1.63;;
14858;SDS011;7521;51.700;6.874;2023-06-14T15:26:22;3.17;;;1.93;;
14858;SDS011;7521;51.700;6.874;2023-06-14T15:29:29;3.93;;;1.80;;
14858;SDS011;7521;51.700;6.874;2023-06-14T15:32:34;3.13;;;1.83;;
14858;SDS011;7521;51.700;6.874;2023-06-14T15:35:39;2.43;;;1.63;;
14858;SDS011;7521;51.700;6.874;2023-06-14T15:38:44;2.03;;;1.63;;
14858;SDS011;7521;51.700;6.874;2023-06-14T15:41:50;3.63;;;1.90;;
14858;SDS011;7521;51.700;6.874;2023-06-14T15:44:57;1.70;;;1.60;;
14858;SDS011;7521;51.700;6.874;2023-06-14T15:48:02;1.83;;;1.60;;
14858;SDS011;7521;51.700;6.874;2023-06-14T15:51:07;2.57;;;1.40;;
14858;SDS011;7521;51.700;6.874;2023-06-14T15:54:12;2.60;;;1.80;;
14858;SDS011;7521;51.700;6.874;2023-06-14T15:57:17;3.15;;;1.75;;
14858;SDS011;7521;51.700;6.874;2023-06-14T16:00:23;3.72;;;1.83;;
14858;SDS011;7521;51.700;6.874;2023-06-14T16:03:30;1.50;;;1.40;;
14858;SDS011;7521;51.700;6.874;2023-06-14T16:06:35;4.55;;;1.90;;
14858;SDS011;7521;51.700;6.874;2023-06-14T16:09:41;4.07;;;1.80;;
14858;SDS011;7521;51.700;6.874;2023-06-14T16:12:46;1.90;;;1.70;;
14858;SDS011;7521;51.700;6.874;2023-06-14T16:15:51;2.90;;;1.70;;
14858;SDS011;7521;51.700;6.874;2023-06-14T16:18:56;3.53;;;2.07;;
14858;SDS011;7521;51.700;6.874;2023-06-14T16:22:01;3.55;;;1.95;;
14858;SDS011;7521;51.700;6.874;2023-06-14T16:25:07;2.10;;;1.73;;
14858;SDS011;7521;51.700;6.874;2023-06-14T16:28:12;6.60;;;2.00;;
14858;SDS011;7521;51.700;6.874;2023-06-14T16:31:17;4.87;;;1.80;;
14858;SDS011;7521;51.700;6.874;2023-06-14T16:34:24;3.17;;;2.00;;
14858;SDS011;7521;51.700;6.874;2023-06-14T16:37:30;3.40;;;1.70;;
14858;SDS011;7521;51.700;6.874;2023-06-14T16:40:35;2.07;;;1.80;;
14858;SDS011;7521;51.700;6.874;2023-06-14T16:43:40;4.70;;;1.83;;
14858;SDS011;7521;51.700;6.874;2023-06-14T16:46:46;2.13;;;1.70;;
14858;SDS011;7521;51.700;6.874;2023-06-14T16:49:51;2.63;;;1.80;;
14858;SDS011;7521;51.700;6.874;2023-06-14T16:52:57;2.80;;;1.70;;
14858;SDS011;7521;51.700;6.874;2023-06-14T16:56:02;3.75;;;2.30;;
14858;SDS011;7521;51.700;6.874;2023-06-14T16:59:07;2.43;;;1.70;;
14858;SDS011;7521;51.700;6.874;2023-06-14T17:02:14;3.83;;;2.20;;
14858;SDS011;7521;51.700;6.874;2023-06-14T17:05:20;2.43;;;2.23;;
14858;SDS011;7521;51.700;6.874;2023-06-14T17:08:25;4.20;;;2.07;;
14858;SDS011;7521;51.700;6.874;2023-06-14T17:11:30;3.03;;;1.80;;
14858;SDS011;7521;51.700;6.874;2023-06-14T17:14:35;4.40;;;2.03;;
14858;SDS011;7521;51.700;6.874;2023-06-14T17:17:41;3.42;;;1.90;;
14858;SDS011;7521;51.700;6.874;2023-06-14T17:20:46;4.13;;;1.93;;
14858;SDS011;7521;51.700;6.874;2023-06-14T17:23:51;1.60;;;1.50;;
14858;SDS011;7521;51.700;6.874;2023-06-14T17:26:56;2.90;;;1.60;;
14858;SDS011;7521;51.700;6.874;2023-06-14T17:30:02;2.67;;;1.47;;
14858;SDS011;7521;51.700;6.874;2023-06-14T17:33:08;2.87;;;1.60;;
14858;SDS011;7521;51.700;6.874;2023-06-14T17:36:13;3.50;;;1.40;;
14858;SDS011;7521;51.700;6.874;2023-06-14T17:39:18;2.33;;;1.50;;
14858;SDS011;7521;51.700;6.874;2023-06-14T17:42:24;1.93;;;1.57;;
14858;SDS011;7521;51.700;6.874;2023-06-14T17:45:29;2.00;;;1.60;;
14858;SDS011;7521;51.700;6.874;2023-06-14T17:48:34;4.93;;;1.57;;
14858;SDS011;7521;51.700;6.874;2023-06-14T17:51:40;1.67;;;1.53;;
14858;SDS011;7521;51.700;6.874;2023-06-14T17:54:45;3.30;;;1.70;;
14858;SDS011;7521;51.700;6.874;2023-06-14T17:57:50;2.07;;;1.53;;
14858;SDS011;7521;51.700;6.874;2023-06-14T18:00:55;2.57;;;1.50;;
14858;SDS011;7521;51.700;6.874;2023-06-14T18:04:00;1.63;;;1.47;;
14858;SDS011;7521;51.700;6.874;2023-06-14T18:07:06;1.50;;;1.40;;
14858;SDS011;7521;51.700;6.874;2023-06-14T18:10:11;2.77;;;1.50;;
14858;SDS011;7521;51.700;6.874;2023-06-14T18:13:19;5.75;;;1.55;;
14858;SDS011;7521;51.700;6.874;2023-06-14T18:16:24;2.20;;;1.40;;
14858;SDS011;7521;51.700;6.874;2023-06-14T18:19:29;2.63;;;1.70;;
14858;SDS011;7521;51.700;6.874;2023-06-14T18:22:35;1.83;;;1.40;;
14858;SDS011;7521;51.700;6.874;2023-06-14T18:25:40;3.10;;;1.67;;
14858;SDS011;7521;51.700;6.874;2023-06-14T18:28:45;3.73;;;1.73;;
14858;SDS011;7521;51.700;6.874;2023-06-14T18:31:50;3.10;;;1.40;;
14858;SDS011;7521;51.700;6.874;2023-06-14T18:34:55;4.27;;;1.40;;
14858;SDS011;7521;51.700;6.874;2023-06-14T18:38:01;3.00;;;1.70;;
14858;SDS011;7521;51.700;6.874;2023-06-14T18:41:06;3.37;;;1.40;;
14858;SDS011;7521;51.700;6.874;2023-06-14T18:44:11;1.50;;;1.20;;
14858;SDS011;7521;51.700;6.874;2023-06-14T18:47:16;2.13;;;1.30;;
14858;SDS011;7521;51.700;6.874;2023-06-14T18:50:21;1.83;;;1.27;;
14858;SDS011;7521;51.700;6.874;2023-06-14T18:53:27;2.33;;;1.20;;
14858;SDS011;7521;51.700;6.874;2023-06-14T18:56:32;4.80;;;1.50;;
14858;SDS011;7521;51.700;6.874;2023-06-14T18:59:37;1.73;;;1.43;;
14858;SDS011;7521;51.700;6.874;2023-06-14T19:02:42;2.03;;;1.50;;